Time;durP1;ratioP1;P1;durP2;ratioP2;P2;SDS_P1;SDS_P2;PMS_P1;PMS_P2;Temp;Humidity;BMP_temperature;BMP_pressure;BME280_temperature;BME280_humidity;BME280_pressure;Samples;Min_cycle;Max_cycle;Signal;HPM_P1;HPM_P2
2023/01/07 00:00:33;;;;;;;;;;;19.70;51.00;;;;;;1549138;75;844;-62
2023/01/07 00:02:34;;;;;;;;;;;19.70;51.00;;;;;;1539252;75;771;-61
2023/01/07 00:04:36;;;;;;;;;;;19.70;51.00;;;;;;1545340;75;782;-60
2023/01/07 00:06:39;;;;;;;;;;;19.70;51.10;;;;;;1533480;75;1556;-61
2023/01/07 00:08:42;;;;;;;;;;;19.70;51.00;;;;;;1539523;75;1110;-61
2023/01/07 00:10:43;;;;;;;;;;;19.70;51.00;;;;;;1541678;75;782;-62
2023/01/07 00:12:45;;;;;;;;;;;19.70;51.00;;;;;;1536982;75;701;-61
2023/01/07 00:14:47;;;;;;;;;;;19.70;51.00;;;;;;1534533;75;765;-61
2023/01/07 00:16:49;;;;;;;;;;;19.70;51.00;;;;;;1539861;75;1970;-62
2023/01/07 00:18:51;;;;;;;;;;;19.70;51.00;;;;;;1553459;74;1124;-62
2023/01/07 00:20:55;;;;;;;;;;;19.70;51.00;;;;;;1530570;75;1550;-61
2023/01/07 00:22:57;;;;;;;;;;;19.70;51.00;;;;;;1545164;75;1667;-61
2023/01/07 00:24:58;;;;;;;;;;;19.70;51.00;;;;;;1554548;75;748;-61
2023/01/07 00:27:00;;;;;;;;;;;19.70;51.00;;;;;;1562675;75;759;-60
2023/01/07 00:29:02;;;;;;;;;;;19.70;51.00;;;;;;1548557;74;1135;-61
2023/01/07 00:31:05;;;;;;;;;;;19.70;51.00;;;;;;1541173;75;726;-61
2023/01/07 00:33:08;;;;;;;;;;;19.70;51.00;;;;;;1548933;75;797;-61
2023/01/07 00:35:21;;;;;;;;;;;19.70;51.00;;;;;;1537418;75;1490;-62
2023/01/07 00:37:48;;;;;;;;;;;19.70;51.00;;;;;;1550295;75;1936;-61
2023/01/07 00:39:20;;;;;;;;;;;19.70;51.00;;;;;;1548753;74;1518;-61
2023/01/07 00:41:22;;;;;;;;;;;19.70;51.00;;;;;;1549862;75;692;-60
2023/01/07 00:43:24;;;;;;;;;;;19.60;50.90;;;;;;1558620;75;725;-60
2023/01/07 00:45:26;;;;;;;;;;;19.70;51.00;;;;;;1545130;75;814;-61
2023/01/07 00:47:27;;;;;;;;;;;19.60;51.00;;;;;;1559095;75;734;-61
2023/01/07 00:49:29;;;;;;;;;;;19.60;50.90;;;;;;1554740;74;1527;-62
2023/01/07 00:51:31;;;;;;;;;;;19.70;51.10;;;;;;1535882;75;796;-62
2023/01/07 00:53:33;;;;;;;;;;;19.70;51.00;;;;;;1547719;75;752;-62
2023/01/07 00:55:35;;;;;;;;;;;19.70;51.00;;;;;;1552274;75;680;-60
2023/01/07 00:57:37;;;;;;;;;;;19.70;51.10;;;;;;1548388;75;1948;-60
2023/01/07 00:59:39;;;;;;;;;;;19.70;51.10;;;;;;1536039;75;1137;-62
2023/01/07 01:01:40;;;;;;;;;;;19.70;51.10;;;;;;1535289;75;776;-61
2023/01/07 01:03:42;;;;;;;;;;;19.60;51.00;;;;;;1541875;75;1540;-61
2023/01/07 01:05:44;;;;;;;;;;;19.70;51.10;;;;;;1565994;75;725;-62
2023/01/07 01:07:46;;;;;;;;;;;19.60;51.00;;;;;;1546272;75;753;-61
2023/01/07 01:09:48;;;;;;;;;;;19.70;51.10;;;;;;1552584;75;1129;-60
2023/01/07 01:11:50;;;;;;;;;;;19.70;51.10;;;;;;1541760;75;752;-61
2023/01/07 01:13:52;;;;;;;;;;;19.70;51.10;;;;;;1534997;75;739;-61
2023/01/07 01:15:54;;;;;;;;;;;19.60;51.00;;;;;;1542757;75;787;-62
2023/01/07 01:17:56;;;;;;;;;;;19.70;51.10;;;;;;1549039;75;1944;-61
2023/01/07 01:19:57;;;;;;;;;;;19.70;51.00;;;;;;1554934;74;1114;-60
2023/01/07 01:21:59;;;;;;;;;;;19.60;50.90;;;;;;1545321;75;781;-60
2023/01/07 01:24:01;;;;;;;;;;;19.60;51.00;;;;;;1554142;75;924;-60
2023/01/07 01:26:07;;;;;;;;;;;19.60;50.90;;;;;;1535721;75;752;-62
2023/01/07 01:28:09;;;;;;;;;;;19.60;51.00;;;;;;1544111;75;748;-62
2023/01/07 01:30:11;;;;;;;;;;;19.70;51.10;;;;;;1541501;74;1118;-61
2023/01/07 01:32:13;;;;;;;;;;;19.60;50.90;;;;;;1538971;75;1378;-61
2023/01/07 01:34:15;;;;;;;;;;;19.60;50.90;;;;;;1545832;75;803;-61
2023/01/07 01:36:17;;;;;;;;;;;19.60;51.00;;;;;;1543068;75;784;-61
2023/01/07 01:38:19;;;;;;;;;;;19.70;51.10;;;;;;1552346;75;1932;-60
2023/01/07 01:40:20;;;;;;;;;;;19.60;51.00;;;;;;1549618;74;1110;-60
2023/01/07 01:42:23;;;;;;;;;;;19.60;50.90;;;;;;1558215;75;775;-63
2023/01/07 01:44:35;;;;;;;;;;;19.70;51.00;;;;;;1536633;75;680;-61
2023/01/07 01:46:38;;;;;;;;;;;19.60;51.00;;;;;;1538080;75;1356;-60
2023/01/07 01:48:41;;;;;;;;;;;19.60;51.00;;;;;;1535824;75;1196;-61
2023/01/07 01:50:43;;;;;;;;;;;19.60;51.00;;;;;;1542972;75;1456;-60
2023/01/07 01:52:56;;;;;;;;;;;19.60;51.00;;;;;;1543234;75;725;-61
2023/01/07 01:54:59;;;;;;;;;;;19.70;51.10;;;;;;1553690;75;1320;-60
2023/01/07 01:57:02;;;;;;;;;;;19.60;50.90;;;;;;1539121;75;1940;-60
2023/01/07 01:59:06;;;;;;;;;;;19.60;51.00;;;;;;1536240;75;1591;-60
2023/01/07 02:01:07;;;;;;;;;;;19.70;51.10;;;;;;1535558;75;1434;-61
2023/01/07 02:03:11;;;;;;;;;;;19.60;51.00;;;;;;1547548;75;722;-61
2023/01/07 02:05:13;;;;;;;;;;;19.70;51.10;;;;;;1544079;75;615;-63
2023/01/07 02:07:15;;;;;;;;;;;19.60;51.00;;;;;;1537244;75;677;-61
2023/01/07 02:09:17;;;;;;;;;;;19.60;51.00;;;;;;1533160;75;1104;-60
2023/01/07 02:11:37;;;;;;;;;;;19.70;51.10;;;;;;1553492;75;793;-61
2023/01/07 02:13:47;;;;;;;;;;;19.60;51.00;;;;;;1541936;75;1570;-61
2023/01/07 02:16:07;;;;;;;;;;;19.70;51.10;;;;;;1538408;75;781;-61
2023/01/07 02:18:26;;;;;;;;;;;19.70;51.10;;;;;;1530832;75;1918;-61
2023/01/07 02:20:41;;;;;;;;;;;19.60;51.00;;;;;;1555965;75;1947;-60
2023/01/07 02:23:01;;;;;;;;;;;19.60;51.00;;;;;;1557634;75;1928;-60
2023/01/07 02:25:21;;;;;;;;;;;19.70;51.10;;;;;;1534584;75;764;-60
2023/01/07 02:27:25;;;;;;;;;;;19.60;51.00;;;;;;1543017;75;1556;-62
2023/01/07 02:29:35;;;;;;;;;;;19.70;51.10;;;;;;1557675;74;1183;-60
2023/01/07 02:31:55;;;;;;;;;;;19.60;51.00;;;;;;1557460;75;683;-59
2023/01/07 02:33:58;;;;;;;;;;;19.70;51.10;;;;;;1534237;75;700;-60
2023/01/07 02:36:07;;;;;;;;;;;19.60;51.00;;;;;;1552277;75;885;-60
2023/01/07 02:38:29;;;;;;;;;;;19.70;51.20;;;;;;1549431;75;2170;-60
2023/01/07 02:40:32;;;;;;;;;;;19.60;51.10;;;;;;1542441;75;1097;-60
2023/01/07 02:42:37;;;;;;;;;;;19.60;51.10;;;;;;1533664;75;1974;-60
2023/01/07 02:44:47;;;;;;;;;;;19.60;51.00;;;;;;1549890;75;746;-62
2023/01/07 02:46:53;;;;;;;;;;;19.60;51.10;;;;;;1554020;75;1871;-61
2023/01/07 02:48:57;;;;;;;;;;;19.60;51.00;;;;;;1540332;75;1139;-60
2023/01/07 02:50:59;;;;;;;;;;;19.70;51.20;;;;;;1529700;75;717;-60
2023/01/07 02:53:01;;;;;;;;;;;19.60;51.00;;;;;;1545807;75;587;-59
2023/01/07 02:55:19;;;;;;;;;;;19.60;51.00;;;;;;1541419;75;804;-61
2023/01/07 02:57:28;;;;;;;;;;;19.60;51.00;;;;;;1550385;75;1964;-63
2023/01/07 02:59:48;;;;;;;;;;;19.60;51.00;;;;;;1531518;75;1109;-59
2023/01/07 03:01:51;;;;;;;;;;;19.60;51.00;;;;;;1548819;75;920;-60
2023/01/07 03:04:12;;;;;;;;;;;19.60;51.00;;;;;;1544685;75;953;-60
2023/01/07 03:06:32;;;;;;;;;;;19.70;51.20;;;;;;1537991;75;787;-62
2023/01/07 03:08:36;;;;;;;;;;;19.60;51.00;;;;;;1544637;75;1128;-60
2023/01/07 03:10:45;;;;;;;;;;;19.60;51.00;;;;;;1542393;75;1581;-60
2023/01/07 03:12:49;;;;;;;;;;;19.60;51.00;;;;;;1541799;75;734;-60
2023/01/07 03:14:51;;;;;;;;;;;19.60;51.00;;;;;;1535653;75;1876;-61
2023/01/07 03:16:54;;;;;;;;;;;19.60;51.00;;;;;;1542286;75;750;-60
2023/01/07 03:18:57;;;;;;;;;;;19.60;51.00;;;;;;1535560;75;1916;-60
2023/01/07 03:21:06;;;;;;;;;;;19.60;51.00;;;;;;1534369;75;742;-60
2023/01/07 03:23:09;;;;;;;;;;;19.70;51.20;;;;;;1542492;75;802;-59
2023/01/07 03:25:11;;;;;;;;;;;19.60;51.00;;;;;;1555300;75;1673;-61
2023/01/07 03:27:13;;;;;;;;;;;19.60;51.00;;;;;;1534659;75;678;-61
2023/01/07 03:29:15;;;;;;;;;;;19.60;51.00;;;;;;1533688;75;1141;-60
2023/01/07 03:31:17;;;;;;;;;;;19.60;51.00;;;;;;1533488;75;700;-60
2023/01/07 03:33:23;;;;;;;;;;;19.60;51.00;;;;;;1534003;75;794;-59
2023/01/07 03:35:25;;;;;;;;;;;19.70;51.10;;;;;;1546687;75;1839;-60
2023/01/07 03:37:26;;;;;;;;;;;19.60;51.00;;;;;;1522960;76;1939;-60
2023/01/07 03:39:29;;;;;;;;;;;19.70;51.20;;;;;;1536365;75;1149;-60
2023/01/07 03:43:50;;;;;;;;;;;19.70;51.10;;;;;;1539454;75;1707;-58
2023/01/07 03:45:52;;;;;;;;;;;19.60;51.00;;;;;;1567758;75;829;-60
2023/01/07 03:47:54;;;;;;;;;;;19.60;51.00;;;;;;1543556;75;696;-61
2023/01/07 03:49:56;;;;;;;;;;;19.60;51.00;;;;;;1550186;74;1083;-59
2023/01/07 03:51:58;;;;;;;;;;;19.70;51.10;;;;;;1543488;75;1561;-59
2023/01/07 03:54:00;;;;;;;;;;;19.60;51.00;;;;;;1543174;75;704;-60
2023/01/07 03:56:02;;;;;;;;;;;19.60;51.00;;;;;;1545879;75;782;-59
2023/01/07 03:58:04;;;;;;;;;;;19.60;51.00;;;;;;1553526;75;1939;-58
2023/01/07 04:00:07;;;;;;;;;;;19.60;51.00;;;;;;1562251;75;1174;-60
2023/01/07 04:02:09;;;;;;;;;;;19.60;51.00;;;;;;1547560;75;724;-58
2023/01/07 04:04:10;;;;;;;;;;;19.60;51.00;;;;;;1546583;75;740;-59
2023/01/07 04:06:12;;;;;;;;;;;19.60;51.00;;;;;;1551592;75;1545;-61
2023/01/07 04:08:14;;;;;;;;;;;19.60;51.00;;;;;;1547727;75;756;-60
2023/01/07 04:10:16;;;;;;;;;;;19.60;51.00;;;;;;1557109;75;1112;-59
2023/01/07 04:12:18;;;;;;;;;;;19.60;51.00;;;;;;1547485;75;764;-60
2023/01/07 04:14:20;;;;;;;;;;;19.60;51.00;;;;;;1539637;75;707;-60
2023/01/07 04:16:22;;;;;;;;;;;19.70;51.10;;;;;;1543294;75;703;-59
2023/01/07 04:18:24;;;;;;;;;;;19.60;51.00;;;;;;1544720;75;1957;-59
2023/01/07 04:20:25;;;;;;;;;;;19.60;51.00;;;;;;1545427;75;1562;-60
2023/01/07 04:22:27;;;;;;;;;;;19.60;51.00;;;;;;1537027;75;760;-61
2023/01/07 04:24:29;;;;;;;;;;;19.60;51.00;;;;;;1538358;75;677;-60
2023/01/07 04:26:32;;;;;;;;;;;19.70;51.10;;;;;;1541559;75;768;-59
2023/01/07 04:28:34;;;;;;;;;;;19.70;51.10;;;;;;1541712;75;1157;-59
2023/01/07 04:30:37;;;;;;;;;;;19.60;51.00;;;;;;1536774;75;745;-60
2023/01/07 04:32:39;;;;;;;;;;;19.60;51.00;;;;;;1542268;75;743;-59
2023/01/07 04:34:41;;;;;;;;;;;19.60;51.00;;;;;;1534552;73;222908;-70
2023/01/07 04:36:43;;;;;;;;;;;19.60;51.00;;;;;;1515886;78;644;-69
2023/01/07 04:38:44;;;;;;;;;;;19.60;51.00;;;;;;1517930;78;1947;-70
2023/01/07 04:40:46;;;;;;;;;;;19.60;51.00;;;;;;1524456;78;720;-70
2023/01/07 04:42:48;;;;;;;;;;;19.60;51.00;;;;;;1513641;78;698;-68
2023/01/07 04:44:50;;;;;;;;;;;19.70;51.00;;;;;;1526519;76;1140;-70
2023/01/07 04:46:52;;;;;;;;;;;19.70;51.00;;;;;;1528537;76;776;-69
2023/01/07 04:48:54;;;;;;;;;;;19.70;51.00;;;;;;1518495;76;1493;-68
2023/01/07 04:50:56;;;;;;;;;;;19.70;51.00;;;;;;1506939;76;752;-69
2023/01/07 04:52:57;;;;;;;;;;;19.70;51.00;;;;;;1526195;76;703;-70
2023/01/07 04:54:59;;;;;;;;;;;19.70;51.00;;;;;;1508736;76;1187;-70
2023/01/07 04:57:01;;;;;;;;;;;19.70;51.00;;;;;;1514751;76;870;-69
2023/01/07 04:59:03;;;;;;;;;;;19.60;50.90;;;;;;1521007;76;1945;-70
2023/01/07 05:01:05;;;;;;;;;;;19.70;51.00;;;;;;1519755;76;755;-72
2023/01/07 05:03:08;;;;;;;;;;;19.60;50.90;;;;;;1516856;76;1605;-69
2023/01/07 05:05:10;;;;;;;;;;;19.70;51.00;;;;;;1511049;76;1149;-68
2023/01/07 05:07:11;;;;;;;;;;;19.60;50.90;;;;;;1525107;76;717;-69
2023/01/07 05:09:13;;;;;;;;;;;19.60;50.80;;;;;;1523106;76;737;-68
2023/01/07 05:11:20;;;;;;;;;;;19.70;51.00;;;;;;1523174;76;726;-70
2023/01/07 05:13:19;;;;;;;;;;;19.60;50.80;;;;;;1524904;76;1154;-70
2023/01/07 05:15:21;;;;;;;;;;;19.60;50.90;;;;;;1525236;76;1123;-70
2023/01/07 05:17:23;;;;;;;;;;;19.70;51.00;;;;;;1526917;76;1449;-68
2023/01/07 05:19:25;;;;;;;;;;;19.60;50.90;;;;;;1516973;76;1943;-70
2023/01/07 05:21:27;;;;;;;;;;;19.60;50.90;;;;;;1517011;76;721;-70
2023/01/07 05:23:28;;;;;;;;;;;19.60;50.90;;;;;;1524170;76;1155;-70
2023/01/07 05:25:31;;;;;;;;;;;19.70;51.00;;;;;;1520790;76;1067;-69
2023/01/07 05:27:33;;;;;;;;;;;19.70;51.00;;;;;;1522387;76;735;-70
2023/01/07 05:29:34;;;;;;;;;;;19.60;50.90;;;;;;1517985;76;701;-71
2023/01/07 05:31:36;;;;;;;;;;;19.60;50.90;;;;;;1519403;76;1425;-71
2023/01/07 05:33:38;;;;;;;;;;;19.60;50.90;;;;;;1515581;76;1115;-71
2023/01/07 05:35:40;;;;;;;;;;;19.70;51.00;;;;;;1521789;76;788;-70
2023/01/07 05:37:42;;;;;;;;;;;19.70;51.00;;;;;;1525326;76;712;-71
2023/01/07 05:39:44;;;;;;;;;;;19.60;50.90;;;;;;1520738;76;1936;-70
2023/01/07 05:41:46;;;;;;;;;;;19.60;50.90;;;;;;1520063;76;699;-70
2023/01/07 05:43:48;;;;;;;;;;;19.60;50.90;;;;;;1525161;76;1170;-71
2023/01/07 05:45:50;;;;;;;;;;;19.70;51.00;;;;;;1513585;76;1490;-71
2023/01/07 05:47:52;;;;;;;;;;;19.60;50.90;;;;;;1523175;76;775;-71
2023/01/07 05:49:53;;;;;;;;;;;19.60;50.90;;;;;;1521897;76;658;-70
2023/01/07 05:51:55;;;;;;;;;;;19.70;51.00;;;;;;1520083;76;713;-70
2023/01/07 05:53:57;;;;;;;;;;;19.60;50.90;;;;;;1509429;76;1227;-70
2023/01/07 05:55:59;;;;;;;;;;;19.60;50.90;;;;;;1520907;76;706;-71
2023/01/07 05:58:01;;;;;;;;;;;19.60;50.90;;;;;;1521485;76;674;-70
2023/01/07 06:00:03;;;;;;;;;;;19.60;50.90;;;;;;1517359;76;1932;-70
2023/01/07 06:02:05;;;;;;;;;;;19.60;50.90;;;;;;1511910;76;691;-70
2023/01/07 06:04:07;;;;;;;;;;;19.70;51.10;;;;;;1522248;76;1126;-70
2023/01/07 06:06:09;;;;;;;;;;;19.60;50.90;;;;;;1518927;76;697;-71
2023/01/07 06:08:11;;;;;;;;;;;19.60;51.00;;;;;;1520505;76;607;-70
2023/01/07 06:10:13;;;;;;;;;;;19.60;50.90;;;;;;1525938;76;732;-70
2023/01/07 06:12:15;;;;;;;;;;;19.60;50.90;;;;;;1520827;76;1299;-71
2023/01/07 06:14:16;;;;;;;;;;;19.60;51.00;;;;;;1509107;76;1129;-70
2023/01/07 06:16:18;;;;;;;;;;;19.70;51.10;;;;;;1517954;76;780;-70
2023/01/07 06:18:20;;;;;;;;;;;19.60;50.90;;;;;;1518978;76;782;-71
2023/01/07 06:20:22;;;;;;;;;;;19.60;51.00;;;;;;1519181;76;1926;-71
2023/01/07 06:22:24;;;;;;;;;;;19.70;51.10;;;;;;1524574;76;730;-70
2023/01/07 06:24:26;;;;;;;;;;;19.60;51.00;;;;;;1516243;76;1155;-70
2023/01/07 06:26:28;;;;;;;;;;;19.60;51.00;;;;;;1521371;76;1447;-70
2023/01/07 06:28:30;;;;;;;;;;;19.60;50.90;;;;;;1515424;76;722;-70
2023/01/07 06:30:32;;;;;;;;;;;19.60;51.00;;;;;;1518486;76;769;-70
2023/01/07 06:32:38;;;;;;;;;;;19.70;51.10;;;;;;1516190;76;722;-70
2023/01/07 06:34:40;;;;;;;;;;;19.60;51.00;;;;;;1522891;76;1157;-71
2023/01/07 06:36:42;;;;;;;;;;;19.60;50.90;;;;;;1517021;76;715;-70
2023/01/07 06:38:44;;;;;;;;;;;19.60;51.00;;;;;;1518653;76;1933;-71
2023/01/07 06:40:45;;;;;;;;;;;19.60;51.00;;;;;;1524300;76;1480;-71
2023/01/07 06:42:47;;;;;;;;;;;19.60;50.90;;;;;;1522201;76;717;-70
2023/01/07 06:44:49;;;;;;;;;;;19.60;51.00;;;;;;1525552;76;1242;-69
2023/01/07 06:46:51;;;;;;;;;;;19.60;51.00;;;;;;1520982;76;733;-69
2023/01/07 06:48:53;;;;;;;;;;;19.60;51.00;;;;;;1513520;76;686;-69
2023/01/07 06:50:55;;;;;;;;;;;19.70;51.10;;;;;;1514095;76;715;-69
2023/01/07 06:52:57;;;;;;;;;;;19.60;51.00;;;;;;1526667;76;685;-70
2023/01/07 06:54:58;;;;;;;;;;;19.60;51.00;;;;;;1517495;76;1397;-71
2023/01/07 06:57:00;;;;;;;;;;;19.60;51.00;;;;;;1516798;76;726;-70
2023/01/07 06:59:02;;;;;;;;;;;19.60;51.00;;;;;;1527308;76;1943;-70
2023/01/07 07:01:05;;;;;;;;;;;19.60;51.00;;;;;;1526184;76;722;-70
2023/01/07 07:03:07;;;;;;;;;;;19.50;51.00;;;;;;1520787;76;717;-70
2023/01/07 07:05:09;;;;;;;;;;;19.60;51.00;;;;;;1519235;76;1165;-69
2023/01/07 07:07:11;;;;;;;;;;;19.60;51.00;;;;;;1524582;76;710;-70
2023/01/07 07:09:13;;;;;;;;;;;19.60;51.00;;;;;;1523978;76;1482;-71
2023/01/07 07:11:15;;;;;;;;;;;19.50;51.00;;;;;;1516265;76;778;-71
2023/01/07 07:13:17;;;;;;;;;;;19.60;51.00;;;;;;1526456;76;740;-71
2023/01/07 07:15:19;;;;;;;;;;;19.50;51.00;;;;;;1529753;75;1166;-70
2023/01/07 07:17:20;;;;;;;;;;;19.60;51.00;;;;;;1521393;76;737;-69
2023/01/07 07:19:22;;;;;;;;;;;19.50;51.00;;;;;;1525130;76;1940;-73
2023/01/07 07:21:24;;;;;;;;;;;19.60;51.00;;;;;;1529250;76;725;-71
2023/01/07 07:23:26;;;;;;;;;;;19.60;51.00;;;;;;1525604;76;1432;-69
2023/01/07 07:25:28;;;;;;;;;;;19.60;51.00;;;;;;1518276;76;685;-70
2023/01/07 07:27:30;;;;;;;;;;;19.60;51.00;;;;;;1525421;76;779;-71
2023/01/07 07:29:32;;;;;;;;;;;19.60;50.90;;;;;;1521987;76;716;-70
2023/01/07 07:31:34;;;;;;;;;;;19.50;51.00;;;;;;1517670;76;723;-71
2023/01/07 07:33:36;;;;;;;;;;;19.60;51.00;;;;;;1522721;76;1127;-72
2023/01/07 07:35:37;;;;;;;;;;;19.60;51.00;;;;;;1525421;76;807;-70
2023/01/07 07:37:39;;;;;;;;;;;19.50;51.00;;;;;;1514381;76;1445;-71
2023/01/07 07:39:41;;;;;;;;;;;19.60;51.00;;;;;;1518227;76;1941;-71
2023/01/07 07:41:43;;;;;;;;;;;19.50;51.00;;;;;;1523811;76;718;-71
2023/01/07 07:43:45;;;;;;;;;;;19.60;51.00;;;;;;1524591;76;1106;-70
2023/01/07 07:45:47;;;;;;;;;;;19.50;51.00;;;;;;1508635;76;684;-70
2023/01/07 07:47:49;;;;;;;;;;;19.60;51.00;;;;;;1520625;76;699;-70
2023/01/07 07:49:50;;;;;;;;;;;19.50;51.00;;;;;;1521844;76;724;-71
2023/01/07 07:51:52;;;;;;;;;;;19.60;51.00;;;;;;1519830;76;1500;-71
2023/01/07 07:53:54;;;;;;;;;;;19.60;51.00;;;;;;1512659;76;1143;-71
2023/01/07 07:55:56;;;;;;;;;;;19.60;51.00;;;;;;1519946;76;602;-71
2023/01/07 07:57:58;;;;;;;;;;;19.60;51.00;;;;;;1520898;76;729;-71
2023/01/07 08:00:00;;;;;;;;;;;19.60;51.00;;;;;;1521635;76;1929;-71
2023/01/07 08:02:02;;;;;;;;;;;19.60;51.00;;;;;;1523062;76;712;-71
2023/01/07 08:04:03;;;;;;;;;;;19.60;51.00;;;;;;1520821;76;1190;-69
2023/01/07 08:06:06;;;;;;;;;;;19.60;51.00;;;;;;1519024;76;1470;-71
2023/01/07 08:08:12;;;;;;;;;;;19.60;51.00;;;;;;1509595;76;710;-70
2023/01/07 08:10:11;;;;;;;;;;;19.60;51.00;;;;;;1529323;76;969;-71
2023/01/07 08:12:13;;;;;;;;;;;19.60;51.00;;;;;;1524892;76;639;-71
2023/01/07 08:14:15;;;;;;;;;;;19.60;50.90;;;;;;1522602;76;1135;-69
2023/01/07 08:16:17;;;;;;;;;;;19.60;51.00;;;;;;1522860;76;721;-70
2023/01/07 08:18:19;;;;;;;;;;;19.60;51.00;;;;;;1520554;76;636;-71
2023/01/07 08:20:20;;;;;;;;;;;19.60;51.00;;;;;;1517336;76;1937;-71
2023/01/07 08:22:22;;;;;;;;;;;19.70;51.00;;;;;;1512738;76;787;-71
2023/01/07 08:24:24;;;;;;;;;;;19.70;51.00;;;;;;1530508;76;1159;-70
2023/01/07 08:26:26;;;;;;;;;;;19.60;50.90;;;;;;1523359;76;740;-71
2023/01/07 08:28:29;;;;;;;;;;;19.70;51.00;;;;;;1524327;76;733;-70
2023/01/07 08:30:31;;;;;;;;;;;19.70;50.90;;;;;;1523611;76;923;-70
2023/01/07 08:32:32;;;;;;;;;;;19.70;51.00;;;;;;1526474;76;796;-70
2023/01/07 08:34:34;;;;;;;;;;;19.70;50.90;;;;;;1512837;76;1591;-71
2023/01/07 08:36:36;;;;;;;;;;;19.70;50.90;;;;;;1518614;76;747;-71
2023/01/07 08:38:38;;;;;;;;;;;19.70;50.80;;;;;;1522268;76;733;-71
2023/01/07 08:40:40;;;;;;;;;;;19.70;50.70;;;;;;1515894;76;1939;-70
2023/01/07 08:42:42;;;;;;;;;;;19.70;50.70;;;;;;1526893;76;667;-71
2023/01/07 08:44:44;;;;;;;;;;;19.70;50.70;;;;;;1522756;76;1131;-71
2023/01/07 08:46:46;;;;;;;;;;;19.70;50.70;;;;;;1521019;76;748;-71
2023/01/07 08:48:47;;;;;;;;;;;19.70;50.70;;;;;;1518486;76;1611;-70
2023/01/07 08:50:51;;;;;;;;;;;19.70;50.70;;;;;;1516524;76;736;-70
2023/01/07 08:52:53;;;;;;;;;;;19.80;50.60;;;;;;1518577;76;848;-69
2023/01/07 08:54:55;;;;;;;;;;;19.70;50.60;;;;;;1525214;76;1122;-69
2023/01/07 08:56:56;;;;;;;;;;;19.70;50.60;;;;;;1520931;76;724;-70
2023/01/07 08:58:59;;;;;;;;;;;19.70;50.60;;;;;;1518915;76;713;-71
2023/01/07 09:01:01;;;;;;;;;;;19.70;50.50;;;;;;1516550;76;1913;-71
2023/01/07 09:03:03;;;;;;;;;;;19.80;50.60;;;;;;1516362;76;700;-71
2023/01/07 09:05:06;;;;;;;;;;;19.70;50.60;;;;;;1509291;76;1155;-71
2023/01/07 09:07:08;;;;;;;;;;;19.70;50.50;;;;;;1521007;76;697;-70
2023/01/07 09:09:10;;;;;;;;;;;19.80;50.60;;;;;;1521904;76;703;-71
2023/01/07 09:11:12;;;;;;;;;;;19.80;50.50;;;;;;1524225;76;758;-70
2023/01/07 09:13:14;;;;;;;;;;;19.70;50.50;;;;;;1519542;76;776;-70
2023/01/07 09:15:16;;;;;;;;;;;19.70;50.50;;;;;;1522195;76;1439;-71
2023/01/07 09:17:18;;;;;;;;;;;19.70;50.50;;;;;;1509159;76;713;-71
2023/01/07 09:19:20;;;;;;;;;;;19.70;50.50;;;;;;1508905;76;699;-67
2023/01/07 09:21:21;;;;;;;;;;;19.70;50.50;;;;;;1520328;76;1933;-68
2023/01/07 09:23:23;;;;;;;;;;;19.80;50.50;;;;;;1520294;76;714;-71
2023/01/07 09:25:25;;;;;;;;;;;19.80;50.40;;;;;;1528708;76;765;-71
2023/01/07 09:27:27;;;;;;;;;;;19.70;50.30;;;;;;1520170;76;742;-71
2023/01/07 09:29:29;;;;;;;;;;;19.80;50.30;;;;;;1516361;76;1321;-71
2023/01/07 09:31:31;;;;;;;;;;;19.80;50.30;;;;;;1514387;76;865;-70
2023/01/07 09:33:33;;;;;;;;;;;19.90;50.40;;;;;;1518413;76;1166;-71
2023/01/07 09:35:34;;;;;;;;;;;19.90;50.20;;;;;;1521235;76;615;-71
2023/01/07 09:37:36;;;;;;;;;;;20.00;50.10;;;;;;1510167;76;810;-71
2023/01/07 09:39:38;;;;;;;;;;;20.00;49.90;;;;;;1525961;76;581;-71
2023/01/07 09:41:45;;;;;;;;;;;20.20;49.80;;;;;;1518941;76;729;-70
2023/01/07 09:43:47;;;;;;;;;;;20.20;49.60;;;;;;1521923;76;1443;-71
2023/01/07 09:45:50;;;;;;;;;;;20.20;49.60;;;;;;1511376;76;727;-70
2023/01/07 09:47:57;;;;;;;;;;;20.20;49.40;;;;;;1530036;76;1055;-70
2023/01/07 09:50:00;;;;;;;;;;;20.20;49.30;;;;;;1518106;76;723;-69
2023/01/07 09:52:04;;;;;;;;;;;20.30;49.40;;;;;;1515042;76;1605;-71
2023/01/07 09:54:07;;;;;;;;;;;20.40;49.30;;;;;;1522801;76;1167;-71
2023/01/07 09:56:17;;;;;;;;;;;20.50;49.20;;;;;;1517040;76;929;-69
2023/01/07 09:58:19;;;;;;;;;;;20.40;49.00;;;;;;1507477;76;1592;-70
2023/01/07 10:00:22;;;;;;;;;;;20.50;49.10;;;;;;1507084;76;1925;-71
2023/01/07 10:02:34;;;;;;;;;;;20.50;49.00;;;;;;1524188;76;740;-70
2023/01/07 10:04:38;;;;;;;;;;;20.50;48.90;;;;;;1521715;76;1509;-71
2023/01/07 10:06:52;;;;;;;;;;;20.50;48.90;;;;;;1522688;76;682;-70
2023/01/07 10:09:00;;;;;;;;;;;20.60;48.90;;;;;;1526552;76;757;-70
2023/01/07 10:11:15;;;;;;;;;;;20.60;48.90;;;;;;1523822;76;757;-69
2023/01/07 10:13:25;;;;;;;;;;;20.50;48.90;;;;;;1517898;76;1154;-72
2023/01/07 10:15:35;;;;;;;;;;;20.50;48.90;;;;;;1517722;76;723;-71
2023/01/07 10:17:41;;;;;;;;;;;20.60;48.80;;;;;;1520303;76;742;-70
2023/01/07 10:19:45;;;;;;;;;;;20.60;48.70;;;;;;1524695;76;725;-71
2023/01/07 10:21:57;;;;;;;;;;;20.60;48.70;;;;;;1526390;76;1932;-69
2023/01/07 10:24:02;;;;;;;;;;;20.60;48.70;;;;;;1524346;76;1167;-71
2023/01/07 10:26:03;;;;;;;;;;;20.60;48.60;;;;;;1523195;76;1520;-71
2023/01/07 10:28:07;;;;;;;;;;;20.60;48.60;;;;;;1527150;76;742;-71
2023/01/07 10:30:16;;;;;;;;;;;20.70;48.60;;;;;;1523870;76;694;-71
2023/01/07 10:32:21;;;;;;;;;;;20.90;48.60;;;;;;1521526;76;982;-70
2023/01/07 10:34:25;;;;;;;;;;;20.70;48.60;;;;;;1538371;73;2103;-70
2023/01/07 10:36:27;;;;;;;;;;;20.70;48.50;;;;;;1577444;74;947;-70
2023/01/07 10:38:30;;;;;;;;;;;20.70;48.40;;;;;;1576153;74;719;-70
2023/01/07 10:40:33;;;;;;;;;;;20.70;48.40;;;;;;1567925;75;1934;-70
2023/01/07 10:42:43;;;;;;;;;;;20.60;48.30;;;;;;1563762;75;784;-70
2023/01/07 10:44:46;;;;;;;;;;;20.70;48.40;;;;;;1554382;75;1202;-68
2023/01/07 10:46:50;;;;;;;;;;;20.60;48.30;;;;;;1548210;74;1796;-70
2023/01/07 10:49:06;;;;;;;;;;;20.60;48.20;;;;;;1566441;74;1619;-69
2023/01/07 10:51:25;;;;;;;;;;;20.70;48.40;;;;;;1562699;74;1684;-69
2023/01/07 10:53:37;;;;;;;;;;;20.70;48.30;;;;;;1571164;74;1524;-71
2023/01/07 10:55:49;;;;;;;;;;;20.60;48.10;;;;;;1557124;74;1614;-72
2023/01/07 10:57:51;;;;;;;;;;;20.60;48.20;;;;;;1563148;74;758;-71
2023/01/07 10:59:53;;;;;;;;;;;20.60;48.20;;;;;;1568228;74;759;-71
2023/01/07 11:01:56;;;;;;;;;;;20.70;48.30;;;;;;1568360;74;1938;-71
2023/01/07 11:03:58;;;;;;;;;;;20.60;48.10;;;;;;1565488;74;1192;-71
2023/01/07 11:06:02;;;;;;;;;;;20.60;48.10;;;;;;1567121;74;745;-70
2023/01/07 11:08:04;;;;;;;;;;;20.60;48.10;;;;;;1561350;74;1573;-71
2023/01/07 11:10:06;;;;;;;;;;;20.60;48.10;;;;;;1536392;75;1333;-71
2023/01/07 11:12:22;;;;;;;;;;;20.60;48.10;;;;;;1562921;74;709;-71
2023/01/07 11:14:28;;;;;;;;;;;20.60;48.10;;;;;;1568304;74;1200;-70
2023/01/07 11:16:31;;;;;;;;;;;20.60;48.10;;;;;;1563112;74;672;-71
2023/01/07 11:18:37;;;;;;;;;;;20.60;48.10;;;;;;1568199;74;732;-72
2023/01/07 11:20:56;;;;;;;;;;;20.60;48.10;;;;;;1569746;74;1993;-71
2023/01/07 11:22:57;;;;;;;;;;;20.60;48.10;;;;;;1558498;74;1309;-70
2023/01/07 11:25:00;;;;;;;;;;;20.60;48.10;;;;;;1554833;74;1150;-69
2023/01/07 11:27:13;;;;;;;;;;;20.50;48.20;;;;;;1568219;74;733;-69
2023/01/07 11:29:22;;;;;;;;;;;20.60;48.30;;;;;;1567925;74;762;-69
2023/01/07 11:31:42;;;;;;;;;;;20.60;48.10;;;;;;1567106;74;687;-69
2023/01/07 11:33:49;;;;;;;;;;;20.50;48.30;;;;;;1563896;74;730;-69
2023/01/07 11:35:52;;;;;;;;;;;20.50;48.30;;;;;;1567891;74;1510;-69
2023/01/07 11:37:54;;;;;;;;;;;20.50;48.40;;;;;;1560916;74;868;-69
2023/01/07 11:39:59;;;;;;;;;;;20.50;48.40;;;;;;1568716;74;813;-69
2023/01/07 11:42:50;;;;;;;;;;;20.50;48.40;;;;;;1569424;74;1926;-70
2023/01/07 11:44:09;;;;;;;;;;;20.50;48.40;;;;;;1546223;74;1716;-69
2023/01/07 11:46:12;;;;;;;;;;;20.50;48.30;;;;;;1547984;75;1356;-70
2023/01/07 11:48:22;;;;;;;;;;;20.50;48.40;;;;;;1567701;74;966;-69
2023/01/07 11:50:25;;;;;;;;;;;20.50;48.40;;;;;;1559552;74;1876;-69
2023/01/07 11:52:27;;;;;;;;;;;20.50;48.50;;;;;;1552511;74;1055;-69
2023/01/07 11:54:30;;;;;;;;;;;20.40;48.30;;;;;;1568669;74;1147;-68
2023/01/07 11:56:33;;;;;;;;;;;20.50;48.40;;;;;;1567956;74;702;-69
2023/01/07 11:58:35;;;;;;;;;;;20.40;48.40;;;;;;1565275;74;725;-69
2023/01/07 12:00:37;;;;;;;;;;;20.40;48.50;;;;;;1568685;74;1927;-69
2023/01/07 12:02:39;;;;;;;;;;;20.40;48.40;;;;;;1564060;74;732;-69
2023/01/07 12:04:41;;;;;;;;;;;20.40;48.40;;;;;;1566329;74;1603;-71
2023/01/07 12:06:43;;;;;;;;;;;20.40;48.50;;;;;;1574409;74;660;-69
2023/01/07 12:09:03;;;;;;;;;;;20.40;48.50;;;;;;1568552;74;801;-69
2023/01/07 12:11:10;;;;;;;;;;;20.40;48.50;;;;;;1566716;74;961;-69
2023/01/07 12:13:20;;;;;;;;;;;20.40;48.50;;;;;;1567132;74;743;-69
2023/01/07 12:15:25;;;;;;;;;;;20.40;48.50;;;;;;1565807;74;1127;-69
2023/01/07 12:17:28;;;;;;;;;;;20.40;48.50;;;;;;1568662;74;738;-70
2023/01/07 12:19:33;;;;;;;;;;;20.40;48.50;;;;;;1554232;74;1642;-69